Woodhull, Illinois
Current Conditions -  °F | °C
As of 5:55 PM on Saturday 22 Nov 2014 (Local Time) from KGBG Reporting Station
Overcast Overcast  
Wind Chill: 54°   Ceiling: 1900
Heat Index: 54°   Visibility: 10mi
Dew Point: 48°   Wind: 12mph
Humidity: 82%   Direction: 160°SSE
Pressure: 29.84"   Gusts: NA
Location:  41.18°N, 90.32°W
Report Text: KGBG 222355Z AUTO 16010KT 10SM OVC019 12/09 A2984 RMK AO2 T01210091 10132 20110
Loading
Personal Weather Stations






























Interactive Weather Map New forecast layout! Learn more

10-Day Weather Forecast

Advertisements
Track Severe Weather on mobile